Time,TemperatureF,DewpointF,PressureIn,WindDirection,WindDirectionDegrees,WindSpeedMPH,WindSpeedGustMPH,Humidity,HourlyPrecipIn,Conditions,Clouds,dailyrainin,SoftwareType,DateUTC
2013-05-25 00:04:00,75.6,40.0,30.00,South,173,0.0,2.0,28,0.00,,,0.00,weatherlink.com 1.10,2013-05-25 06:04:00,
2013-05-25 00:20:00,74.6,39.0,30.00,South,173,0.0,2.0,28,0.00,,,0.00,weatherlink.com 1.10,2013-05-25 06:20:00,
2013-05-25 00:35:00,76.1,46.0,30.02,ESE,114,4.0,17.0,35,0.00,,,0.00,weatherlink.com 1.10,2013-05-25 06:35:00,
2013-05-25 00:50:00,76.7,48.0,30.03,SE,132,0.0,1.0,36,0.00,,,0.00,weatherlink.com 1.10,2013-05-25 06:50:00,
2013-05-25 01:05:00,75.5,49.0,30.03,SSE,150,0.0,2.0,39,0.00,,,0.00,weatherlink.com 1.10,2013-05-25 07:05:00,
2013-05-25 01:21:00,75.3,51.0,30.04,ESE,104,0.0,2.0,42,0.00,,,0.00,weatherlink.com 1.10,2013-05-25 07:21:00,
2013-05-25 01:36:00,74.7,52.0,30.03,SE,125,0.0,5.0,45,0.00,,,0.00,weatherlink.com 1.10,2013-05-25 07:36:00,
2013-05-25 01:51:00,74.4,51.0,30.04,SE,132,1.0,4.0,44,0.00,,,0.00,weatherlink.com 1.10,2013-05-25 07:51:00,
2013-05-25 02:06:00,73.9,53.0,30.04,SE,138,1.0,4.0,48,0.00,,,0.00,weatherlink.com 1.10,2013-05-25 08:06:00,
2013-05-25 02:21:00,73.7,54.0,30.04,SE,129,1.0,6.0,50,0.00,,,0.00,weatherlink.com 1.10,2013-05-25 08:21:00,
2013-05-25 02:37:00,73.2,54.0,30.04,ESE,122,3.0,5.0,51,0.00,,,0.00,weatherlink.com 1.10,2013-05-25 08:37:00,
2013-05-25 02:52:00,72.6,53.0,30.04,ESE,121,1.0,3.0,51,0.00,,,0.00,weatherlink.com 1.10,2013-05-25 08:52:00,
2013-05-25 03:07:00,72.0,53.0,30.04,ESE,121,0.0,2.0,52,0.00,,,0.00,weatherlink.com 1.10,2013-05-25 09:07:00,
2013-05-25 03:22:00,71.5,53.0,30.05,SE,125,0.0,1.0,52,0.00,,,0.00,weatherlink.com 1.10,2013-05-25 09:22:00,
2013-05-25 03:37:00,71.0,53.0,30.05,SE,125,0.0,1.0,53,0.00,,,0.00,weatherlink.com 1.10,2013-05-25 09:37:00,
2013-05-25 03:53:00,70.3,52.0,30.05,East,101,0.0,3.0,53,0.00,,,0.00,weatherlink.com 1.10,2013-05-25 09:53:00,
2013-05-25 04:08:00,69.8,52.0,30.04,East,101,0.0,0.0,54,0.00,,,0.00,weatherlink.com 1.10,2013-05-25 10:08:00,
2013-05-25 04:23:00,69.4,52.0,30.04,East,101,0.0,0.0,54,0.00,,,0.00,weatherlink.com 1.10,2013-05-25 10:23:00,
2013-05-25 04:38:00,68.9,52.0,30.04,East,101,0.0,1.0,55,0.00,,,0.00,weatherlink.com 1.10,2013-05-25 10:38:00,
2013-05-25 04:53:00,68.2,51.0,30.04,East,101,0.0,2.0,55,0.00,,,0.00,weatherlink.com 1.10,2013-05-25 10:53:00,
2013-05-25 05:09:00,67.8,52.0,30.04,East,101,1.0,2.0,57,0.00,,,0.00,weatherlink.com 1.10,2013-05-25 11:09:00,
2013-05-25 05:24:00,69.1,53.0,30.05,South,186,2.0,4.0,56,0.00,,,0.00,weatherlink.com 1.10,2013-05-25 11:24:00,
2013-05-25 05:39:00,69.8,53.0,30.04,SW,216,3.0,5.0,55,0.00,,,0.00,weatherlink.com 1.10,2013-05-25 11:39:00,
2013-05-25 05:54:00,69.4,53.0,30.04,SW,222,1.0,4.0,55,0.00,,,0.00,weatherlink.com 1.10,2013-05-25 11:54:00,
2013-05-25 06:09:00,68.6,53.0,30.04,SW,219,1.0,3.0,57,0.00,,,0.00,weatherlink.com 1.10,2013-05-25 12:09:00,
2013-05-25 06:25:00,68.9,53.0,30.05,SSW,205,4.0,5.0,57,0.00,,,0.00,weatherlink.com 1.10,2013-05-25 12:25:00,
2013-05-25 06:40:00,70.3,53.0,30.05,SSW,196,3.0,5.0,55,0.00,,,0.00,weatherlink.com 1.10,2013-05-25 12:40:00,
2013-05-25 06:55:00,71.3,54.0,30.06,South,175,4.0,6.0,54,0.00,,,0.00,weatherlink.com 1.10,2013-05-25 12:55:00,
2013-05-25 07:10:00,72.3,54.0,30.06,SSE,164,4.0,6.0,52,0.00,,,0.00,weatherlink.com 1.10,2013-05-25 13:10:00,
2013-05-25 07:26:00,73.1,54.0,30.06,SSW,202,6.0,7.0,51,0.00,,,0.00,weatherlink.com 1.10,2013-05-25 13:26:00,
2013-05-25 07:41:00,73.7,54.0,30.06,South,172,7.0,8.0,50,0.00,,,0.00,weatherlink.com 1.10,2013-05-25 13:41:00,
2013-05-25 07:56:00,74.4,54.0,30.07,SSE,167,6.0,10.0,49,0.00,,,0.00,weatherlink.com 1.10,2013-05-25 13:56:00,
2013-05-25 08:11:00,74.9,54.0,30.07,SE,138,8.0,10.0,48,0.00,,,0.00,weatherlink.com 1.10,2013-05-25 14:11:00,
2013-05-25 08:26:00,75.7,54.0,30.07,South,176,6.0,11.0,47,0.00,,,0.00,weatherlink.com 1.10,2013-05-25 14:26:00,
2013-05-25 08:42:00,76.4,54.0,30.07,SSE,159,6.0,12.0,46,0.00,,,0.00,weatherlink.com 1.10,2013-05-25 14:42:00,
2013-05-25 08:57:00,77.3,54.0,30.07,SSE,155,7.0,10.0,45,0.00,,,0.00,weatherlink.com 1.10,2013-05-25 14:57:00,
2013-05-25 09:12:00,78.0,54.0,30.07,SSE,156,6.0,9.0,44,0.00,,,0.00,weatherlink.com 1.10,2013-05-25 15:12:00,
2013-05-25 09:27:00,79.2,54.0,30.07,South,173,4.0,10.0,42,0.00,,,0.00,weatherlink.com 1.10,2013-05-25 15:27:00,
2013-05-25 09:42:00,80.6,54.0,30.07,SSE,153,3.0,11.0,40,0.00,,,0.00,weatherlink.com 1.10,2013-05-25 15:42:00,
2013-05-25 09:58:00,81.4,54.0,30.06,South,169,4.0,10.0,39,0.00,,,0.00,weatherlink.com 1.10,2013-05-25 15:58:00,
2013-05-25 10:13:00,82.9,54.0,30.06,South,185,8.0,12.0,37,0.00,,,0.00,weatherlink.com 1.10,2013-05-25 16:13:00,
2013-05-25 10:40:00,84.8,52.0,30.06,SSE,164,3.0,8.0,33,0.00,,,0.00,weatherlink.com 1.10,2013-05-25 16:40:00,
2013-05-25 10:56:00,87.1,54.0,30.05,ESE,123,4.0,8.0,32,0.00,,,0.00,weatherlink.com 1.10,2013-05-25 16:56:00,
2013-05-25 11:11:00,88.6,52.0,30.05,SE,134,3.0,9.0,29,0.00,,,0.00,weatherlink.com 1.10,2013-05-25 17:11:00,
2013-05-25 11:26:00,89.7,50.0,30.05,SSE,150,3.0,10.0,26,0.00,,,0.00,weatherlink.com 1.10,2013-05-25 17:26:00,
2013-05-25 11:41:00,90.3,47.0,30.05,SSW,198,4.0,13.0,23,0.00,,,0.00,weatherlink.com 1.10,2013-05-25 17:41:00,
2013-05-25 11:56:00,91.1,47.0,30.04,ESE,113,4.0,12.0,22,0.00,,,0.00,weatherlink.com 1.10,2013-05-25 17:56:00,
2013-05-25 12:12:00,93.1,43.0,30.04,ENE,75,2.0,16.0,18,0.00,,,0.00,weatherlink.com 1.10,2013-05-25 18:12:00,
2013-05-25 12:27:00,93.8,37.0,30.03,SSW,195,9.0,9.0,14,0.00,,,0.00,weatherlink.com 1.10,2013-05-25 18:27:00,
2013-05-25 12:42:00,93.1,31.0,30.03,WSW,244,5.0,11.0,11,0.00,,,0.00,weatherlink.com 1.10,2013-05-25 18:42:00,
2013-05-25 12:57:00,93.9,29.0,30.03,SW,222,3.0,11.0,10,0.00,,,0.00,weatherlink.com 1.10,2013-05-25 18:57:00,
2013-05-25 13:12:00,93.8,26.0,30.02,SW,223,8.0,17.0,9,0.00,,,0.00,weatherlink.com 1.10,2013-05-25 19:12:00,
2013-05-25 13:28:00,95.2,32.0,30.01,South,186,12.0,12.0,11,0.00,,,0.00,weatherlink.com 1.10,2013-05-25 19:28:00,
2013-05-25 13:43:00,95.5,30.0,30.01,South,178,8.0,16.0,10,0.00,,,0.00,weatherlink.com 1.10,2013-05-25 19:43:00,
2013-05-25 13:58:00,95.3,28.0,30.00,WSW,240,5.0,15.0,9,0.00,,,0.00,weatherlink.com 1.10,2013-05-25 19:58:00,
2013-05-25 14:13:00,97.3,26.0,30.00,WNW,286,6.0,16.0,8,0.00,,,0.00,weatherlink.com 1.10,2013-05-25 20:13:00,
2013-05-25 14:28:00,95.9,22.0,29.99,West,275,3.0,13.0,7,0.00,,,0.00,weatherlink.com 1.10,2013-05-25 20:28:00,
2013-05-25 14:44:00,95.9,14.0,29.99,SSE,149,5.0,11.0,5,0.00,,,0.00,weatherlink.com 1.10,2013-05-25 20:44:00,
2013-05-25 14:59:00,97.3,23.0,29.98,West,276,6.0,14.0,7,0.00,,,0.00,weatherlink.com 1.10,2013-05-25 20:59:00,
2013-05-25 15:14:00,98.7,20.0,29.98,SSW,196,11.0,16.0,6,0.00,,,0.00,weatherlink.com 1.10,2013-05-25 21:14:00,
2013-05-25 15:29:00,98.2,20.0,29.98,WNW,291,5.0,22.0,6,0.00,,,0.00,weatherlink.com 1.10,2013-05-25 21:29:00,
2013-05-25 15:44:00,99.1,21.0,29.97,West,273,6.0,17.0,6,0.00,,,0.00,weatherlink.com 1.10,2013-05-25 21:44:00,
2013-05-25 16:00:00,98.8,16.0,29.96,WSW,240,4.0,18.0,5,0.00,,,0.00,weatherlink.com 1.10,2013-05-25 22:00:00,
2013-05-25 16:15:00,97.4,19.0,29.95,South,175,6.0,13.0,6,0.00,,,0.00,weatherlink.com 1.10,2013-05-25 22:15:00,
2013-05-25 16:30:00,97.9,16.0,29.94,West,281,2.0,20.0,5,0.00,,,0.00,weatherlink.com 1.10,2013-05-25 22:30:00,
2013-05-25 16:45:00,98.3,16.0,29.94,SW,224,7.0,17.0,5,0.00,,,0.00,weatherlink.com 1.10,2013-05-25 22:45:00,
2013-05-25 17:01:00,98.0,11.0,29.93,SW,221,8.0,22.0,4,0.00,,,0.00,weatherlink.com 1.10,2013-05-25 23:01:00,
2013-05-25 17:16:00,98.2,4.0,29.93,WSW,250,6.0,17.0,3,0.00,,,0.00,weatherlink.com 1.10,2013-05-25 23:16:00,
2013-05-25 17:31:00,97.7,10.0,29.93,West,278,4.0,17.0,4,0.00,,,0.00,weatherlink.com 1.10,2013-05-25 23:31:00,
2013-05-25 17:46:00,97.3,10.0,29.92,SW,232,12.0,18.0,4,0.00,,,0.00,weatherlink.com 1.10,2013-05-25 23:46:00,
2013-05-25 18:01:00,96.4,14.0,29.92,NW,311,2.0,13.0,5,0.00,,,0.00,weatherlink.com 1.10,2013-05-26 00:01:00,
2013-05-25 18:17:00,96.2,14.0,29.91,WSW,242,2.0,12.0,5,0.00,,,0.00,weatherlink.com 1.10,2013-05-26 00:17:00,
2013-05-25 18:32:00,94.9,13.0,29.91,WSW,238,7.0,18.0,5,0.00,,,0.00,weatherlink.com 1.10,2013-05-26 00:32:00,
2013-05-25 18:47:00,94.7,8.0,29.91,WNW,290,4.0,13.0,4,0.00,,,0.00,weatherlink.com 1.10,2013-05-26 00:47:00,
2013-05-25 19:02:00,93.9,8.0,29.91,WNW,295,3.0,10.0,4,0.00,,,0.00,weatherlink.com 1.10,2013-05-26 01:02:00,
2013-05-25 19:17:00,92.6,7.0,29.91,NW,308,1.0,10.0,4,0.00,,,0.00,weatherlink.com 1.10,2013-05-26 01:17:00,
2013-05-25 19:33:00,91.3,11.0,29.92,SW,222,0.0,8.0,5,0.00,,,0.00,weatherlink.com 1.10,2013-05-26 01:33:00,
2013-05-25 19:48:00,89.7,14.0,29.92,WSW,238,0.0,7.0,6,0.00,,,0.00,weatherlink.com 1.10,2013-05-26 01:48:00,
2013-05-25 20:03:00,89.5,10.0,29.92,SSW,208,11.0,15.0,5,0.00,,,0.00,weatherlink.com 1.10,2013-05-26 02:03:00,
2013-05-25 20:18:00,88.9,9.0,29.92,SW,229,0.0,8.0,5,0.00,,,0.00,weatherlink.com 1.10,2013-05-26 02:18:00,
2013-05-25 20:34:00,88.6,4.0,29.93,SSW,209,3.0,13.0,4,0.00,,,0.00,weatherlink.com 1.10,2013-05-26 02:34:00,
2013-05-25 20:49:00,88.7,4.0,29.93,SSW,211,14.0,16.0,4,0.00,,,0.00,weatherlink.com 1.10,2013-05-26 02:49:00,
2013-05-25 21:04:00,88.4,4.0,29.93,SW,230,5.0,13.0,4,0.00,,,0.00,weatherlink.com 1.10,2013-05-26 03:04:00,
2013-05-25 21:19:00,88.0,9.0,29.93,SW,225,3.0,10.0,5,0.00,,,0.00,weatherlink.com 1.10,2013-05-26 03:19:00,
2013-05-25 21:34:00,87.7,12.0,29.94,WSW,256,0.0,10.0,6,0.00,,,0.00,weatherlink.com 1.10,2013-05-26 03:34:00,
2013-05-25 21:49:00,86.9,15.0,29.95,West,273,3.0,7.0,7,0.00,,,0.00,weatherlink.com 1.10,2013-05-26 03:49:00,
2013-05-25 22:05:00,87.2,16.0,29.96,WNW,301,5.0,12.0,7,0.00,,,0.00,weatherlink.com 1.10,2013-05-26 04:05:00,
2013-05-25 22:20:00,87.4,16.0,29.97,West,275,4.0,16.0,7,0.00,,,0.00,weatherlink.com 1.10,2013-05-26 04:20:00,
2013-05-25 22:35:00,87.2,16.0,29.97,WNW,300,14.0,15.0,7,0.00,,,0.00,weatherlink.com 1.10,2013-05-26 04:35:00,
2013-05-25 22:50:00,87.2,16.0,29.97,NW,305,8.0,20.0,7,0.00,,,0.00,weatherlink.com 1.10,2013-05-26 04:50:00,
2013-05-25 23:06:00,86.6,15.0,29.97,WNW,285,7.0,18.0,7,0.00,,,0.00,weatherlink.com 1.10,2013-05-26 05:06:00,
2013-05-25 23:21:00,85.9,15.0,29.97,WNW,288,9.0,16.0,7,0.00,,,0.00,weatherlink.com 1.10,2013-05-26 05:21:00,
2013-05-25 23:36:00,85.2,14.0,29.97,West,269,8.0,18.0,7,0.00,,,0.00,weatherlink.com 1.10,2013-05-26 05:36:00,
2013-05-25 23:51:00,84.8,14.0,29.97,WNW,288,10.0,23.0,7,0.00,,,0.00,weatherlink.com 1.10,2013-05-26 05:51:00,